Time;durP1;ratioP1;P1;durP2;ratioP2;P2;SDS_P1;SDS_P2;PMS_P1;PMS_P2;Temp;Humidity;BMP_temperature;BMP_pressure;BME280_temperature;BME280_humidity;BME280_pressure;Samples;Min_cycle;Max_cycle;Signal;HPM_P1;HPM_P2
2022/06/30 00:01:36;;;;;;;;;;;19.80;80.50;;;;;;5050387;28;20267;-84
2022/06/30 00:04:05;;;;;;;;;;;19.80;80.40;;;;;;5060670;28;19932;-84
2022/06/30 00:06:30;;;;;;;;;;;19.80;80.50;;;;;;5059078;28;19917;-84
2022/06/30 00:08:56;;;;;;;;;;;19.70;80.30;;;;;;5058468;28;19913;-84
2022/06/30 00:11:29;;;;;;;;;;;19.70;80.50;;;;;;5061033;28;19912;-83
2022/06/30 00:13:58;;;;;;;;;;;19.70;80.60;;;;;;5056295;28;19909;-84
2022/06/30 00:16:23;;;;;;;;;;;19.80;80.40;;;;;;5048525;28;19962;-84
2022/06/30 00:18:52;;;;;;;;;;;19.80;79.90;;;;;;5063198;28;19956;-84
2022/06/30 00:21:18;;;;;;;;;;;19.70;79.70;;;;;;5060892;28;19913;-83
2022/06/30 00:23:43;;;;;;;;;;;19.60;79.90;;;;;;5059503;28;19913;-83
2022/06/30 00:26:08;;;;;;;;;;;19.60;80.00;;;;;;5060667;28;19913;-83
2022/06/30 00:28:34;;;;;;;;;;;19.60;80.00;;;;;;5054377;28;19924;-84
2022/06/30 00:30:59;;;;;;;;;;;19.60;79.90;;;;;;5056064;28;19942;-83
2022/06/30 00:33:25;;;;;;;;;;;19.50;80.30;;;;;;5057860;28;20325;-84
2022/06/30 00:35:50;;;;;;;;;;;19.50;80.60;;;;;;5060592;28;19912;-84
2022/06/30 00:38:16;;;;;;;;;;;19.50;80.30;;;;;;5058826;28;19984;-84
2022/06/30 00:40:44;;;;;;;;;;;19.50;80.30;;;;;;5051383;28;19939;-83
2022/06/30 00:43:10;;;;;;;;;;;19.50;80.20;;;;;;5058651;28;20000;-82
2022/06/30 00:45:39;;;;;;;;;;;19.40;80.30;;;;;;5056521;28;19971;-83
2022/06/30 00:48:05;;;;;;;;;;;19.30;80.90;;;;;;5051934;28;19980;-83
2022/06/30 00:50:30;;;;;;;;;;;19.30;80.70;;;;;;5056501;28;19909;-83
2022/06/30 00:52:56;;;;;;;;;;;19.30;80.60;;;;;;5054446;28;19955;-82
2022/06/30 00:55:22;;;;;;;;;;;19.20;81.10;;;;;;5065404;28;19917;-82
2022/06/30 00:57:48;;;;;;;;;;;19.20;80.90;;;;;;5054476;28;19920;-82
2022/06/30 01:00:14;;;;;;;;;;;19.20;81.30;;;;;;5057429;28;19920;-82
2022/06/30 01:02:40;;;;;;;;;;;19.20;81.20;;;;;;5046114;28;19992;-82
2022/06/30 01:05:06;;;;;;;;;;;19.20;80.80;;;;;;5056461;28;19967;-84
2022/06/30 01:07:32;;;;;;;;;;;19.10;80.90;;;;;;5052666;28;19913;-84
2022/06/30 01:12:45;;;;;;;;;;;19.10;81.00;;;;;;5055378;28;19919;-82
2022/06/30 01:15:12;;;;;;;;;;;19.00;81.50;;;;;;5053866;28;20387;-82
2022/06/30 01:17:38;;;;;;;;;;;19.00;81.20;;;;;;5047459;28;20508;-82
2022/06/30 01:20:04;;;;;;;;;;;19.00;81.10;;;;;;5056125;28;19913;-82
2022/06/30 01:22:29;;;;;;;;;;;19.00;81.20;;;;;;5046048;28;19921;-82
2022/06/30 01:24:55;;;;;;;;;;;18.90;81.30;;;;;;5054099;28;19921;-82
2022/06/30 01:27:20;;;;;;;;;;;18.80;81.60;;;;;;5052955;28;19912;-81
2022/06/30 01:29:46;;;;;;;;;;;18.80;81.90;;;;;;5052947;28;20174;-82
2022/06/30 01:32:12;;;;;;;;;;;18.70;82.10;;;;;;5052133;28;20566;-82
2022/06/30 01:34:37;;;;;;;;;;;18.70;82.10;;;;;;5052727;28;19913;-82
2022/06/30 01:37:03;;;;;;;;;;;18.70;82.00;;;;;;5053975;28;19979;-82
2022/06/30 01:39:29;;;;;;;;;;;18.80;82.40;;;;;;5047041;28;19972;-82
2022/06/30 01:41:54;;;;;;;;;;;18.80;82.20;;;;;;5065658;28;20024;-82
2022/06/30 01:44:19;;;;;;;;;;;18.80;82.00;;;;;;5049380;28;19953;-82
2022/06/30 01:46:46;;;;;;;;;;;18.90;81.80;;;;;;5055547;28;19913;-82
2022/06/30 01:49:11;;;;;;;;;;;18.80;81.90;;;;;;5052892;28;19913;-82
2022/06/30 01:51:37;;;;;;;;;;;18.80;82.10;;;;;;5054257;28;20066;-82
2022/06/30 01:54:03;;;;;;;;;;;18.70;82.00;;;;;;5053602;28;19939;-82
2022/06/30 01:56:28;;;;;;;;;;;18.70;82.20;;;;;;5055509;28;19939;-82
2022/06/30 01:58:54;;;;;;;;;;;18.70;82.00;;;;;;5050574;28;19972;-82
2022/06/30 02:01:19;;;;;;;;;;;18.60;82.20;;;;;;5054747;28;19909;-81
2022/06/30 02:03:45;;;;;;;;;;;18.70;82.10;;;;;;5052041;28;19916;-82
2022/06/30 02:06:10;;;;;;;;;;;18.70;82.00;;;;;;5041088;28;19923;-81
2022/06/30 02:08:36;;;;;;;;;;;18.60;82.00;;;;;;5052246;28;19913;-81
2022/06/30 02:11:01;;;;;;;;;;;18.60;82.00;;;;;;5045921;28;19921;-81
2022/06/30 02:13:27;;;;;;;;;;;18.60;82.00;;;;;;5054257;28;19967;-82
2022/06/30 02:15:53;;;;;;;;;;;18.60;82.00;;;;;;5053358;28;19988;-81
2022/06/30 02:18:18;;;;;;;;;;;18.60;81.80;;;;;;5055423;28;19912;-82
2022/06/30 02:20:44;;;;;;;;;;;18.60;81.70;;;;;;5049925;28;19948;-81
2022/06/30 02:23:09;;;;;;;;;;;18.50;81.60;;;;;;5052811;28;19924;-81
2022/06/30 02:25:35;;;;;;;;;;;18.50;81.60;;;;;;5058485;28;19919;-81
2022/06/30 02:28:02;;;;;;;;;;;18.40;81.90;;;;;;5057311;28;19923;-81
2022/06/30 02:30:28;;;;;;;;;;;18.30;81.90;;;;;;5062883;28;20311;-81
2022/06/30 02:32:53;;;;;;;;;;;18.30;82.50;;;;;;5056606;28;19923;-81
2022/06/30 02:35:19;;;;;;;;;;;18.30;82.50;;;;;;5051634;28;20358;-82
2022/06/30 02:37:44;;;;;;;;;;;18.30;82.30;;;;;;5053215;28;19960;-82
2022/06/30 02:40:11;;;;;;;;;;;18.30;82.00;;;;;;5050869;28;19919;-82
2022/06/30 02:42:37;;;;;;;;;;;18.30;82.20;;;;;;5045104;28;19920;-81
2022/06/30 02:45:03;;;;;;;;;;;18.20;82.10;;;;;;5047183;28;19920;-82
2022/06/30 02:47:30;;;;;;;;;;;18.20;82.10;;;;;;5043746;28;19913;-82
2022/06/30 02:49:55;;;;;;;;;;;18.10;82.20;;;;;;5054577;28;20019;-81
2022/06/30 02:52:21;;;;;;;;;;;18.10;82.40;;;;;;5053335;28;20473;-82
2022/06/30 02:54:46;;;;;;;;;;;18.10;82.80;;;;;;5053243;28;20418;-81
2022/06/30 02:57:12;;;;;;;;;;;18.20;82.70;;;;;;5057672;28;19912;-81
2022/06/30 02:59:37;;;;;;;;;;;18.20;82.70;;;;;;5043699;28;19952;-82
2022/06/30 03:02:03;;;;;;;;;;;18.10;83.00;;;;;;5048393;28;19936;-81
2022/06/30 03:04:28;;;;;;;;;;;18.10;83.20;;;;;;5040679;28;19955;-82
2022/06/30 03:06:55;;;;;;;;;;;18.10;83.30;;;;;;5043980;28;19988;-82
2022/06/30 03:09:21;;;;;;;;;;;18.10;83.30;;;;;;5046377;28;19959;-82
2022/06/30 03:11:46;;;;;;;;;;;18.10;83.10;;;;;;5048410;28;20455;-82
2022/06/30 03:14:11;;;;;;;;;;;18.10;83.00;;;;;;5044872;28;19925;-82
2022/06/30 03:16:37;;;;;;;;;;;18.10;83.70;;;;;;5052895;28;19917;-82
2022/06/30 03:19:02;;;;;;;;;;;18.00;83.50;;;;;;5051765;28;19920;-81
2022/06/30 03:21:28;;;;;;;;;;;18.00;83.60;;;;;;5052098;28;19921;-82
2022/06/30 03:23:53;;;;;;;;;;;18.00;83.50;;;;;;5059235;28;19963;-82
2022/06/30 03:26:19;;;;;;;;;;;18.00;83.30;;;;;;5055578;28;19913;-80
2022/06/30 03:28:44;;;;;;;;;;;18.00;83.50;;;;;;5051243;28;19962;-82
2022/06/30 03:31:10;;;;;;;;;;;18.10;83.10;;;;;;5055375;28;20320;-80
2022/06/30 03:33:37;;;;;;;;;;;18.10;82.90;;;;;;5049544;28;19955;-81
2022/06/30 03:36:02;;;;;;;;;;;18.10;82.90;;;;;;5054103;28;19925;-82
2022/06/30 03:38:28;;;;;;;;;;;18.00;83.10;;;;;;5056108;28;20027;-82
2022/06/30 03:40:53;;;;;;;;;;;18.00;83.10;;;;;;5055196;28;19956;-81
2022/06/30 03:43:19;;;;;;;;;;;18.00;82.80;;;;;;5049811;28;19928;-82
2022/06/30 03:45:44;;;;;;;;;;;18.00;82.60;;;;;;5054144;28;20163;-81
2022/06/30 03:48:09;;;;;;;;;;;18.00;82.50;;;;;;5051087;28;19913;-81
2022/06/30 03:50:35;;;;;;;;;;;17.90;82.50;;;;;;5054953;28;19913;-82
2022/06/30 03:53:01;;;;;;;;;;;17.90;82.60;;;;;;5053494;28;19945;-82
2022/06/30 03:55:26;;;;;;;;;;;17.80;82.90;;;;;;5064400;28;20144;-81
2022/06/30 03:57:52;;;;;;;;;;;17.80;82.80;;;;;;5039334;28;19945;-81
2022/06/30 04:00:17;;;;;;;;;;;17.80;83.10;;;;;;5053239;28;19913;-82
2022/06/30 04:02:43;;;;;;;;;;;17.90;83.10;;;;;;5055654;28;19948;-82
2022/06/30 04:05:08;;;;;;;;;;;17.80;83.10;;;;;;5055707;28;19917;-82
2022/06/30 04:07:40;;;;;;;;;;;17.80;83.30;;;;;;5053873;28;19920;-82
2022/06/30 04:10:06;;;;;;;;;;;17.80;83.50;;;;;;5052682;28;19912;-83
2022/06/30 04:12:32;;;;;;;;;;;17.80;83.60;;;;;;5067879;28;20525;-83
2022/06/30 04:14:57;;;;;;;;;;;17.90;83.70;;;;;;5056550;28;20033;-82
2022/06/30 04:17:23;;;;;;;;;;;17.90;84.10;;;;;;5053649;28;19917;-82
2022/06/30 04:19:48;;;;;;;;;;;17.90;84.10;;;;;;5055902;28;19953;-82
2022/06/30 04:22:13;;;;;;;;;;;18.00;84.20;;;;;;5050422;28;19939;-81
2022/06/30 04:24:39;;;;;;;;;;;18.00;84.20;;;;;;5056386;28;19920;-81
2022/06/30 04:27:05;;;;;;;;;;;18.10;84.30;;;;;;5053344;28;20024;-82
2022/06/30 04:29:30;;;;;;;;;;;18.10;84.40;;;;;;5055673;28;19960;-82
2022/06/30 04:32:56;;;;;;;;;;;18.10;84.40;;;;;;5052870;28;19917;-82
2022/06/30 04:34:50;;;;;;;;;;;18.20;84.40;;;;;;5043132;28;19924;-82
2022/06/30 04:37:16;;;;;;;;;;;18.20;84.40;;;;;;5054791;28;19913;-81
2022/06/30 04:39:41;;;;;;;;;;;18.30;84.40;;;;;;5051339;28;20015;-81
2022/06/30 04:42:07;;;;;;;;;;;18.30;84.20;;;;;;5051738;28;19917;-81
2022/06/30 04:44:33;;;;;;;;;;;18.40;84.20;;;;;;5049812;28;19913;-81
2022/06/30 04:46:58;;;;;;;;;;;18.50;84.20;;;;;;5049870;28;19912;-80
2022/06/30 04:49:24;;;;;;;;;;;18.60;84.20;;;;;;5050533;28;20328;-79
2022/06/30 04:51:50;;;;;;;;;;;18.60;84.30;;;;;;5050056;28;20357;-82
2022/06/30 04:54:16;;;;;;;;;;;18.70;84.30;;;;;;5048691;28;19943;-81
2022/06/30 04:56:42;;;;;;;;;;;18.80;84.70;;;;;;5048059;28;19913;-79
2022/06/30 04:59:07;;;;;;;;;;;18.90;85.00;;;;;;5043056;28;20000;-81
2022/06/30 05:01:32;;;;;;;;;;;18.90;85.40;;;;;;5049841;28;20368;-79
2022/06/30 05:03:58;;;;;;;;;;;19.00;85.50;;;;;;5050647;28;20456;-80
2022/06/30 05:06:23;;;;;;;;;;;19.00;85.30;;;;;;5051283;28;20599;-80
2022/06/30 05:08:49;;;;;;;;;;;19.10;85.20;;;;;;5054717;28;19948;-80
2022/06/30 05:11:14;;;;;;;;;;;19.20;85.00;;;;;;5050928;28;20046;-77
2022/06/30 05:13:40;;;;;;;;;;;19.30;84.90;;;;;;5045596;28;19963;-81
2022/06/30 05:16:05;;;;;;;;;;;19.40;84.50;;;;;;5052339;28;19913;-80
2022/06/30 05:18:31;;;;;;;;;;;19.50;84.10;;;;;;5053227;28;19913;-80
2022/06/30 05:20:57;;;;;;;;;;;19.50;84.10;;;;;;5052245;28;20012;-80
2022/06/30 05:23:22;;;;;;;;;;;19.50;84.00;;;;;;5050529;28;20338;-81
2022/06/30 05:28:32;;;;;;;;;;;19.60;84.30;;;;;;5050477;28;20006;-85
2022/06/30 05:30:57;;;;;;;;;;;19.70;84.10;;;;;;5048463;28;19936;-81
2022/06/30 05:33:23;;;;;;;;;;;19.80;83.70;;;;;;5048300;28;20024;-85
2022/06/30 05:35:49;;;;;;;;;;;19.90;83.70;;;;;;5046196;28;19916;-83
2022/06/30 05:38:15;;;;;;;;;;;20.00;83.50;;;;;;5052026;28;19916;-84
2022/06/30 05:40:41;;;;;;;;;;;20.00;83.00;;;;;;5052229;28;19999;-83
2022/06/30 05:43:08;;;;;;;;;;;20.10;82.60;;;;;;5050128;28;19924;-83
2022/06/30 05:45:33;;;;;;;;;;;20.20;82.20;;;;;;5053188;28;20375;-83
2022/06/30 05:47:59;;;;;;;;;;;20.30;81.90;;;;;;5068329;28;19939;-82
2022/06/30 05:50:24;;;;;;;;;;;20.40;81.80;;;;;;5053277;28;20455;-83
2022/06/30 05:52:52;;;;;;;;;;;20.40;81.60;;;;;;5055397;28;20007;-82
2022/06/30 05:55:18;;;;;;;;;;;20.50;81.40;;;;;;5053358;28;20538;-82
2022/06/30 05:57:49;;;;;;;;;;;20.50;81.40;;;;;;5053941;28;20050;-82
2022/06/30 06:00:15;;;;;;;;;;;20.60;81.30;;;;;;5047084;28;19982;-81
2022/06/30 06:02:40;;;;;;;;;;;20.80;81.20;;;;;;5053424;28;19980;-83
2022/06/30 06:05:06;;;;;;;;;;;20.90;80.90;;;;;;5046591;28;20735;-82
2022/06/30 06:07:31;;;;;;;;;;;20.90;81.00;;;;;;5052778;28;20279;-83
2022/06/30 06:09:57;;;;;;;;;;;21.00;81.00;;;;;;5051604;28;19956;-85
2022/06/30 06:12:22;;;;;;;;;;;21.10;80.70;;;;;;5072050;28;19936;-84
2022/06/30 06:14:48;;;;;;;;;;;21.40;80.20;;;;;;5056330;28;19917;-84
2022/06/30 06:17:13;;;;;;;;;;;21.50;79.80;;;;;;5052567;28;20000;-84
2022/06/30 06:19:38;;;;;;;;;;;21.60;79.70;;;;;;5048602;28;19952;-84
2022/06/30 06:22:04;;;;;;;;;;;21.70;79.30;;;;;;5050601;28;19919;-84
2022/06/30 06:24:29;;;;;;;;;;;21.80;79.10;;;;;;5050156;28;19996;-84
2022/06/30 06:26:55;;;;;;;;;;;22.00;78.40;;;;;;5061842;28;19909;-85
2022/06/30 06:29:21;;;;;;;;;;;22.00;78.20;;;;;;5055661;28;19917;-85
2022/06/30 06:31:47;;;;;;;;;;;22.20;77.80;;;;;;5046692;28;19913;-84
2022/06/30 06:34:12;;;;;;;;;;;22.30;77.20;;;;;;5054962;28;19913;-85
2022/06/30 06:36:38;;;;;;;;;;;22.30;77.20;;;;;;5057349;28;19913;-85
2022/06/30 06:39:03;;;;;;;;;;;22.40;77.30;;;;;;5056723;28;19932;-84
2022/06/30 06:41:29;;;;;;;;;;;22.50;76.70;;;;;;5061401;28;19920;-83
2022/06/30 06:43:55;;;;;;;;;;;22.50;76.50;;;;;;5062220;28;19928;-84
2022/06/30 06:46:26;;;;;;;;;;;22.60;76.20;;;;;;5054634;28;19948;-83
2022/06/30 06:48:57;;;;;;;;;;;22.70;75.90;;;;;;5048786;28;19916;-83
2022/06/30 06:51:23;;;;;;;;;;;22.80;75.70;;;;;;5050354;28;19935;-84
2022/06/30 06:53:48;;;;;;;;;;;23.00;74.40;;;;;;5048718;28;20348;-84
2022/06/30 06:56:14;;;;;;;;;;;23.00;74.00;;;;;;5049161;28;19999;-83
2022/06/30 06:58:39;;;;;;;;;;;23.00;73.90;;;;;;5050327;28;19913;-80
2022/06/30 07:01:05;;;;;;;;;;;23.10;73.80;;;;;;5049144;28;19909;-81
2022/06/30 07:03:32;;;;;;;;;;;23.10;74.00;;;;;;5050048;28;19916;-80
2022/06/30 07:05:59;;;;;;;;;;;23.10;73.90;;;;;;5049625;28;20396;-79
2022/06/30 07:08:24;;;;;;;;;;;23.30;72.40;;;;;;5051678;28;20307;-80
2022/06/30 07:10:50;;;;;;;;;;;23.50;71.50;;;;;;5052350;28;20016;-81
2022/06/30 07:13:15;;;;;;;;;;;23.50;71.90;;;;;;5043126;28;19960;-81
2022/06/30 07:15:41;;;;;;;;;;;23.60;71.70;;;;;;5050973;28;20003;-81
2022/06/30 07:18:06;;;;;;;;;;;23.70;71.20;;;;;;5049436;28;19939;-81
2022/06/30 07:20:32;;;;;;;;;;;23.70;71.00;;;;;;5060071;28;19917;-81
2022/06/30 07:22:57;;;;;;;;;;;23.60;71.20;;;;;;5048377;28;20374;-81
2022/06/30 07:25:23;;;;;;;;;;;23.60;71.30;;;;;;5051830;28;19917;-81
2022/06/30 07:27:48;;;;;;;;;;;23.80;70.70;;;;;;5051797;28;19913;-81
2022/06/30 07:30:14;;;;;;;;;;;23.90;69.80;;;;;;5051176;28;19912;-81
2022/06/30 07:32:39;;;;;;;;;;;24.00;69.40;;;;;;5032848;28;19909;-81
2022/06/30 07:35:05;;;;;;;;;;;24.00;68.80;;;;;;5041763;28;19923;-84
2022/06/30 07:37:31;;;;;;;;;;;24.00;69.40;;;;;;5053219;28;20321;-83
2022/06/30 07:39:56;;;;;;;;;;;24.10;67.80;;;;;;5049768;28;19932;-84
2022/06/30 07:42:22;;;;;;;;;;;24.20;66.70;;;;;;5055580;28;19913;-82
2022/06/30 07:44:47;;;;;;;;;;;24.30;66.40;;;;;;5054173;28;20387;-83
2022/06/30 07:47:12;;;;;;;;;;;24.40;65.90;;;;;;5051600;28;20359;-82
2022/06/30 07:49:40;;;;;;;;;;;24.50;66.20;;;;;;5055256;28;20375;-83
2022/06/30 07:52:06;;;;;;;;;;;24.80;64.00;;;;;;5056634;28;19920;-84
2022/06/30 07:54:32;;;;;;;;;;;24.90;62.50;;;;;;5057021;28;20368;-83
2022/06/30 07:56:58;;;;;;;;;;;25.10;59.40;;;;;;5054418;28;20328;-83
2022/06/30 07:59:23;;;;;;;;;;;25.20;57.00;;;;;;5057036;28;19967;-83
2022/06/30 08:01:49;;;;;;;;;;;25.30;57.70;;;;;;5051107;28;19928;-83
2022/06/30 08:04:17;;;;;;;;;;;25.30;58.30;;;;;;5047506;28;19917;-84
2022/06/30 08:06:43;;;;;;;;;;;25.30;58.10;;;;;;5037134;28;19913;-84
2022/06/30 08:09:09;;;;;;;;;;;25.20;58.10;;;;;;5056075;28;19920;-84
2022/06/30 08:11:34;;;;;;;;;;;25.20;57.30;;;;;;5055405;28;20414;-84
2022/06/30 08:14:00;;;;;;;;;;;25.20;56.60;;;;;;5055238;28;20280;-84
2022/06/30 08:16:25;;;;;;;;;;;25.20;54.30;;;;;;5065874;28;19912;-84
2022/06/30 08:18:51;;;;;;;;;;;25.30;53.90;;;;;;5048068;28;19917;-86
2022/06/30 08:21:16;;;;;;;;;;;25.20;55.40;;;;;;5045948;28;19917;-87
2022/06/30 08:23:42;;;;;;;;;;;25.40;56.00;;;;;;5064381;28;19985;-85
2022/06/30 08:26:07;;;;;;;;;;;25.50;55.90;;;;;;5065158;28;20271;-86
2022/06/30 08:28:33;;;;;;;;;;;25.40;55.50;;;;;;5055552;28;19912;-85
2022/06/30 08:31:03;;;;;;;;;;;25.60;56.20;;;;;;5054631;28;19921;-89
2022/06/30 08:33:28;;;;;;;;;;;25.70;54.10;;;;;;5047993;28;19919;-84
2022/06/30 08:35:54;;;;;;;;;;;25.70;54.50;;;;;;5057168;28;19916;-84
2022/06/30 08:38:21;;;;;;;;;;;25.80;53.90;;;;;;5054620;28;19913;-84
2022/06/30 08:43:34;;;;;;;;;;;25.90;52.50;;;;;;5046863;28;19924;-85
2022/06/30 08:46:01;;;;;;;;;;;26.00;51.10;;;;;;5045954;28;20477;-85
2022/06/30 08:48:27;;;;;;;;;;;26.00;51.80;;;;;;5044377;28;19964;-82
2022/06/30 08:51:06;;;;;;;;;;;26.00;52.70;;;;;;5049841;28;19909;-85
2022/06/30 08:53:38;;;;;;;;;;;26.10;52.20;;;;;;5052099;28;19951;-86
2022/06/30 08:56:04;;;;;;;;;;;26.20;52.80;;;;;;5044339;28;19943;-86
2022/06/30 08:58:30;;;;;;;;;;;26.40;51.00;;;;;;5049801;28;20000;-85
2022/06/30 09:00:56;;;;;;;;;;;26.50;49.10;;;;;;5054503;28;19917;-85
2022/06/30 09:03:21;;;;;;;;;;;26.40;48.50;;;;;;5051607;28;19921;-85
2022/06/30 09:05:47;;;;;;;;;;;26.30;49.80;;;;;;5052659;28;20403;-86
2022/06/30 09:08:13;;;;;;;;;;;26.60;49.40;;;;;;5056098;28;20450;-85
2022/06/30 09:10:52;;;;;;;;;;;26.50;50.20;;;;;;5054446;28;19920;-85
2022/06/30 09:13:17;;;;;;;;;;;26.50;48.70;;;;;;5053015;28;19917;-85
2022/06/30 09:15:43;;;;;;;;;;;26.60;48.10;;;;;;5053477;28;19913;-85
2022/06/30 09:18:20;;;;;;;;;;;26.60;45.90;;;;;;5053306;28;20363;-85
2022/06/30 09:20:45;;;;;;;;;;;26.50;46.00;;;;;;5051627;28;19916;-86
2022/06/30 09:23:20;;;;;;;;;;;26.60;46.80;;;;;;5054511;28;20650;-85
2022/06/30 09:25:46;;;;;;;;;;;26.60;46.60;;;;;;5037906;28;19936;-85
2022/06/30 09:28:11;;;;;;;;;;;26.70;46.90;;;;;;5051332;28;19928;-85
2022/06/30 09:30:37;;;;;;;;;;;26.60;47.40;;;;;;5045519;28;19916;-84
2022/06/30 09:33:06;;;;;;;;;;;26.80;47.00;;;;;;5059174;28;19916;-83
2022/06/30 09:35:32;;;;;;;;;;;26.90;47.80;;;;;;5055013;28;19913;-85
2022/06/30 09:38:12;;;;;;;;;;;27.00;48.10;;;;;;5054482;28;19935;-85
2022/06/30 09:43:33;;;;;;;;;;;27.00;47.80;;;;;;5046056;28;19928;-85
2022/06/30 09:45:58;;;;;;;;;;;27.00;46.70;;;;;;5050554;28;19920;-84
2022/06/30 09:48:26;;;;;;;;;;;27.10;46.70;;;;;;5052144;28;19916;-86
2022/06/30 09:50:59;;;;;;;;;;;27.00;46.60;;;;;;5048933;28;20358;-85
2022/06/30 09:53:24;;;;;;;;;;;26.90;46.70;;;;;;5048768;28;19916;-86
2022/06/30 09:55:49;;;;;;;;;;;27.00;45.20;;;;;;5046098;28;20375;-85
2022/06/30 09:58:34;;;;;;;;;;;27.10;43.70;;;;;;5051910;28;19913;-87
2022/06/30 10:00:59;;;;;;;;;;;27.00;45.60;;;;;;5069659;28;19932;-83
2022/06/30 10:03:25;;;;;;;;;;;27.20;45.00;;;;;;5057731;28;19965;-84
2022/06/30 10:06:06;;;;;;;;;;;27.30;43.70;;;;;;5050706;28;19961;-83
2022/06/30 10:08:32;;;;;;;;;;;27.20;43.80;;;;;;5052443;28;19986;-83
2022/06/30 10:10:58;;;;;;;;;;;27.20;43.40;;;;;;5070223;28;19944;-83
2022/06/30 10:13:24;;;;;;;;;;;27.30;44.00;;;;;;5053481;28;19913;-85
2022/06/30 10:15:53;;;;;;;;;;;27.30;44.10;;;;;;5048928;28;19924;-85
2022/06/30 10:18:18;;;;;;;;;;;27.70;43.20;;;;;;5052630;28;19913;-85
2022/06/30 10:20:45;;;;;;;;;;;27.60;42.20;;;;;;5045110;28;20346;-84
2022/06/30 10:23:10;;;;;;;;;;;27.50;43.30;;;;;;5048552;28;19976;-86
2022/06/30 10:25:36;;;;;;;;;;;27.40;41.30;;;;;;5052912;28;20438;-85
2022/06/30 10:28:03;;;;;;;;;;;27.50;41.60;;;;;;5054381;28;19963;-85
2022/06/30 10:30:36;;;;;;;;;;;27.50;42.00;;;;;;5066882;28;19905;-84
2022/06/30 10:33:25;;;;;;;;;;;27.60;41.90;;;;;;5052091;28;19920;-85
2022/06/30 10:36:02;;;;;;;;;;;27.60;41.90;;;;;;5043511;28;20011;-85
2022/06/30 10:38:27;;;;;;;;;;;27.70;42.10;;;;;;5049756;28;19917;-85
2022/06/30 10:40:53;;;;;;;;;;;28.00;41.20;;;;;;5053011;28;19916;-86
2022/06/30 10:43:19;;;;;;;;;;;28.10;40.00;;;;;;5047717;28;19917;-86
2022/06/30 10:45:59;;;;;;;;;;;28.10;40.70;;;;;;5048465;28;19980;-84
2022/06/30 10:48:28;;;;;;;;;;;28.00;41.00;;;;;;5042278;28;19912;-83
2022/06/30 10:50:54;;;;;;;;;;;28.00;40.40;;;;;;5044520;28;19993;-87
2022/06/30 10:53:38;;;;;;;;;;;28.00;40.70;;;;;;5064476;28;19949;-83
2022/06/30 10:56:04;;;;;;;;;;;27.80;40.70;;;;;;5054629;22;19925;-77
2022/06/30 10:58:29;;;;;;;;;;;27.70;40.30;;;;;;5049572;28;19913;-76
2022/06/30 11:01:02;;;;;;;;;;;27.70;41.00;;;;;;5040380;28;19917;-75
2022/06/30 11:03:32;;;;;;;;;;;27.80;40.60;;;;;;5054801;28;20024;-77
2022/06/30 11:05:59;;;;;;;;;;;27.80;40.90;;;;;;5020304;28;20031;-77
2022/06/30 11:08:37;;;;;;;;;;;28.00;40.20;;;;;;5031630;28;20285;-78
2022/06/30 11:11:35;;;;;;;;;;;28.10;39.80;;;;;;5028298;28;19923;-77
2022/06/30 11:14:04;;;;;;;;;;;28.40;39.20;;;;;;4989265;28;20006;-79
2022/06/30 11:16:31;;;;;;;;;;;28.70;39.00;;;;;;5029614;28;19940;-77
2022/06/30 11:18:57;;;;;;;;;;;28.60;38.00;;;;;;5025660;28;20262;-78
2022/06/30 11:21:23;;;;;;;;;;;28.30;38.30;;;;;;5027337;28;19957;-81
2022/06/30 11:23:50;;;;;;;;;;;28.10;38.30;;;;;;5029527;28;19979;-78
2022/06/30 11:29:04;;;;;;;;;;;28.20;39.60;;;;;;5018508;28;19959;-77
2022/06/30 11:31:37;;;;;;;;;;;28.20;39.00;;;;;;5035503;28;19913;-79
2022/06/30 11:34:07;;;;;;;;;;;28.10;40.30;;;;;;5025398;28;19920;-77
2022/06/30 11:36:33;;;;;;;;;;;28.10;39.40;;;;;;5025340;28;19924;-78
2022/06/30 11:39:00;;;;;;;;;;;28.40;38.80;;;;;;5028013;28;20698;-79
2022/06/30 11:44:12;;;;;;;;;;;28.70;38.20;;;;;;5033447;28;20027;-79
2022/06/30 11:46:50;;;;;;;;;;;28.70;37.50;;;;;;5028501;28;20016;-78
2022/06/30 11:49:15;;;;;;;;;;;29.00;37.30;;;;;;5030635;28;19921;-79
2022/06/30 11:51:42;;;;;;;;;;;28.90;37.20;;;;;;5031569;28;20423;-79
2022/06/30 11:54:08;;;;;;;;;;;28.90;36.90;;;;;;5033097;28;19921;-78
2022/06/30 11:56:46;;;;;;;;;;;28.90;39.10;;;;;;5037031;28;19940;-78
2022/06/30 11:59:12;;;;;;;;;;;28.90;38.20;;;;;;5030810;28;19913;-78
2022/06/30 12:01:37;;;;;;;;;;;28.90;38.20;;;;;;5030488;28;20309;-79
2022/06/30 12:04:17;;;;;;;;;;;29.00;38.20;;;;;;5027228;28;19985;-80
2022/06/30 12:06:42;;;;;;;;;;;28.90;37.60;;;;;;5023773;28;19913;-78
2022/06/30 12:09:08;;;;;;;;;;;28.90;38.10;;;;;;5026113;28;19921;-79
2022/06/30 12:11:37;;;;;;;;;;;28.90;37.10;;;;;;5000062;28;20003;-78
2022/06/30 12:14:03;;;;;;;;;;;29.00;37.70;;;;;;5004369;28;19922;-78
2022/06/30 12:16:28;;;;;;;;;;;29.10;37.40;;;;;;5038929;28;19920;-78
2022/06/30 12:18:54;;;;;;;;;;;29.10;37.30;;;;;;5062880;22;20050;-80
2022/06/30 12:21:20;;;;;;;;;;;29.10;37.10;;;;;;5059043;28;19912;-80
2022/06/30 12:23:48;;;;;;;;;;;29.00;37.90;;;;;;5057945;28;20562;-80
2022/06/30 12:26:14;;;;;;;;;;;29.00;38.80;;;;;;5055601;28;19913;-80
2022/06/30 12:28:43;;;;;;;;;;;29.00;38.00;;;;;;5056309;28;19925;-80
2022/06/30 12:31:09;;;;;;;;;;;29.20;37.80;;;;;;5056449;28;19948;-80
2022/06/30 12:33:39;;;;;;;;;;;29.30;37.80;;;;;;5045238;28;19947;-83
2022/06/30 12:36:04;;;;;;;;;;;29.10;37.00;;;;;;5053971;28;19913;-83
2022/06/30 12:38:30;;;;;;;;;;;29.30;37.40;;;;;;5052772;28;19943;-83
2022/06/30 12:40:55;;;;;;;;;;;29.30;36.50;;;;;;5051795;28;19959;-86
2022/06/30 12:43:21;;;;;;;;;;;29.00;37.40;;;;;;5050796;28;20007;-86
2022/06/30 12:45:55;;;;;;;;;;;29.00;37.60;;;;;;5051747;28;20011;-84
2022/06/30 12:48:40;;;;;;;;;;;28.90;38.20;;;;;;5049402;28;19912;-83
2022/06/30 12:51:05;;;;;;;;;;;29.00;39.10;;;;;;5067729;28;20011;-86
2022/06/30 12:53:31;;;;;;;;;;;29.30;37.50;;;;;;5052724;28;20388;-84
2022/06/30 12:56:07;;;;;;;;;;;29.70;36.00;;;;;;5053185;28;19941;-84
2022/06/30 12:58:52;;;;;;;;;;;29.80;36.20;;;;;;5051066;28;19924;-86
2022/06/30 13:01:17;;;;;;;;;;;29.80;36.50;;;;;;5050700;28;19928;-84
2022/06/30 13:03:47;;;;;;;;;;;30.00;35.80;;;;;;5068023;28;20248;-85
2022/06/30 13:06:13;;;;;;;;;;;29.80;36.90;;;;;;5062128;28;19909;-86
2022/06/30 13:08:38;;;;;;;;;;;29.80;36.90;;;;;;5053522;28;19920;-86
2022/06/30 13:11:07;;;;;;;;;;;29.90;37.60;;;;;;5051659;28;19913;-83
2022/06/30 13:13:33;;;;;;;;;;;29.90;37.50;;;;;;5050238;28;19937;-85
2022/06/30 13:15:59;;;;;;;;;;;29.80;37.40;;;;;;5050065;28;20023;-84
2022/06/30 13:18:24;;;;;;;;;;;29.80;37.20;;;;;;5050498;28;19928;-85
2022/06/30 13:20:50;;;;;;;;;;;29.60;37.50;;;;;;5067681;28;19909;-85
2022/06/30 13:23:15;;;;;;;;;;;29.40;37.40;;;;;;5051168;28;19912;-82
2022/06/30 13:25:41;;;;;;;;;;;29.30;38.70;;;;;;5049858;28;19957;-86
2022/06/30 13:28:07;;;;;;;;;;;29.30;39.90;;;;;;5050515;28;19913;-84
2022/06/30 13:30:32;;;;;;;;;;;29.30;39.80;;;;;;5049714;28;20008;-86
2022/06/30 13:32:58;;;;;;;;;;;29.10;38.80;;;;;;5050687;28;19921;-83
2022/06/30 13:35:23;;;;;;;;;;;29.00;40.10;;;;;;5050495;28;19931;-85
2022/06/30 13:37:48;;;;;;;;;;;29.00;40.40;;;;;;5049894;28;19913;-85
2022/06/30 13:40:14;;;;;;;;;;;29.10;40.00;;;;;;5048285;28;19920;-86
2022/06/30 13:42:39;;;;;;;;;;;29.20;39.30;;;;;;5066739;28;20314;-85
2022/06/30 13:45:06;;;;;;;;;;;29.20;39.00;;;;;;5049819;28;19908;-86
2022/06/30 13:47:32;;;;;;;;;;;29.30;38.00;;;;;;5050580;28;19912;-84
2022/06/30 13:49:58;;;;;;;;;;;29.20;39.50;;;;;;5050038;28;19921;-83
2022/06/30 13:52:23;;;;;;;;;;;29.20;38.80;;;;;;5049161;28;19909;-84
2022/06/30 13:54:49;;;;;;;;;;;29.20;38.90;;;;;;5049460;28;20270;-85
2022/06/30 13:57:14;;;;;;;;;;;29.10;39.70;;;;;;5050960;28;20451;-84
2022/06/30 13:59:40;;;;;;;;;;;29.00;40.60;;;;;;5050095;28;20335;-84
2022/06/30 14:02:05;;;;;;;;;;;28.90;40.90;;;;;;5065898;28;19913;-85
2022/06/30 14:04:30;;;;;;;;;;;28.80;39.40;;;;;;5050499;28;20317;-85
2022/06/30 14:06:56;;;;;;;;;;;28.80;40.10;;;;;;5057287;28;19916;-85
2022/06/30 14:09:21;;;;;;;;;;;28.80;39.00;;;;;;5063045;28;19998;-85
2022/06/30 14:11:47;;;;;;;;;;;28.70;39.90;;;;;;5062303;28;19919;-85
2022/06/30 14:14:12;;;;;;;;;;;28.80;39.60;;;;;;5054546;28;19943;-83
2022/06/30 14:16:38;;;;;;;;;;;28.90;41.20;;;;;;5051824;28;19912;-84
2022/06/30 14:19:04;;;;;;;;;;;28.90;39.50;;;;;;5048179;28;19940;-83
2022/06/30 14:21:31;;;;;;;;;;;29.00;38.70;;;;;;5064336;28;19959;-85
2022/06/30 14:23:57;;;;;;;;;;;29.10;38.40;;;;;;5047818;28;19917;-85
2022/06/30 14:26:22;;;;;;;;;;;29.10;39.70;;;;;;5046423;28;19913;-84
2022/06/30 14:28:48;;;;;;;;;;;29.10;40.40;;;;;;5063453;28;20412;-84
2022/06/30 14:31:14;;;;;;;;;;;29.30;38.40;;;;;;5050626;28;20385;-84